Seneca Cors, Wisconsin
Current Conditions -  °F | °C
As of 3:54 PM on Saturday 25 Oct 2014 (Local Time) from KISW Reporting Station
Clear Clear  
Wind Chill: 63°   Ceiling: Unl
Heat Index: 63°   Visibility: 10mi
Dew Point: 26°   Wind: 14mph
Humidity: 25%   Direction: 290°WNW
Pressure: 29.93"   Gusts: 24mph
Location:  44.4583°N, 90.0009°W
Report Text: KISW 252054Z AUTO 29012G21KT 10SM CLR 17/M03 A2993 RMK AO2 PK WND 29028/2025 SLP135 T01721033 55002
Loading
Personal Weather Stations






























Interactive Weather Map
Tropical Storm Tracking
New forecast layout! Learn more

10-Day Weather Forecast

Advertisements
Track Severe Weather on mobile